KSLC/SLC METAR and TAF weather

Enter ICAO airport designator
Station Type Date Time Source
KSLC METAR 2019/07/20 04:54 UTC NOAA

KSLC 200454Z 20005KT 10SM FEW110 BKN250 27/06 A2985 RMK AO2 SLP040 T02670061 $


Station Type Date Time Source
KSLC Decoded METAR 2019/07/20 04:54 UTC NOAA

SALT LAKE CITY INTERNATIONAL AIRPORT , UT, United States (KSLC) 40-47N 111-58W 1286M
Jul 20, 2019 - 12:54 AM EDT / 2019.07.20 0454 UTC
Wind: from the SSW (200 degrees) at 6 MPH (5 KT):0
Visibility: 10 mile(s):0
Sky conditions: mostly cloudy
Temperature: 80.1 F (26.7 C)
Dew Point: 43.0 F (6.1 C)
Relative Humidity: 26%
Pressure (altimeter): 29.85 in. Hg (1010 hPa)
ob: KSLC 200454Z 20005KT 10SM FEW110 BKN250 27/06 A2985 RMK AO2 SLP040 T02670061
cycle: 5

Station Type Date Time Source
KSLC TAF 2019/07/20 06:28 UTC NOAA

TAF KSLC 200526Z 2006/2112 34010G17KT P6SM FEW200
FM200800 35007KT P6SM FEW200
FM201000 15006KT P6SM SCT200
FM201600 33008KT P6SM FEW200
FM210500 15005KT P6SM SKC

Example: see airport list